Terminal Aerodrome Forecast
Issued by NWS Houston/Galveston, TX

Home | Current Version | Previous Version | Text Only | Print | Product List | Glossary On
Versions: 1 2 3 4 5 6 7 8 9 10 11 12 13 14 15 16 17 18 19 20 21 22 23 24 25 26 27 28 29 30 31 32 33 34 35 36 37 38 39 40 41 42
000
FTUS44 KHGX 010533
TAFGLS
TAF
KGLS 010533Z 0106/0206 07011KT 6SM -DZ BR OVC005
     FM010800 07011KT 3SM -DZ BR VCSH OVC004
      TEMPO 0112/0116 2SM SHRA
     FM011800 06010KT 4SM -DZ BR VCSH OVC007
     FM012200 11010KT 2SM BR OVC002
     FM020200 08009KT 1/2SM FG OVC002=

USA.gov is the U.S. government's official web portal to all federal, state and local government web resources and services.